Terminal Aerodrome Forecast
Issued by NWS

Home | Current Version | Previous Version | Graphics & Text | Print | Product List | Glossary On
Versions: 1 2 3 4 5 6 7 8 9 10 11 12 13 14 15 16 17 18 19 20 21
000
FTUS43 KFGF 270800 AAA
TAFBJI
TAF AMD
KBJI 270808Z 2708/2806 VRB03KT P6SM SKC
      TEMPO 2710/2712 3/4SM BR FEW003
     FM271300 22005KT P6SM SCT250
     FM271700 19005KT P6SM SKC=

USA.gov is the U.S. government's official web portal to all federal, state and local government web resources and services.